Fairfield, Virginia
Current Conditions -  °F | °C
As of 3:55 PM on Thursday 27 Nov 2014 (Local Time) from KW13 Reporting Station
Overcast Overcast  
Wind Chill: 32°   Ceiling: 5000
Heat Index: 37°   Visibility: 10mi
Dew Point: 27°   Wind: 6mph
Humidity: 67%   Direction: 300°WNW
Pressure: 30.06"   Gusts: NA
Location:  37.88°N, 79.29°W
Report Text: KW13 272055Z AUTO 30005KT 10SM SCT040 OVC050 03/M03 A3006 RMK AO1 T00261029
Loading
Personal Weather Stations






























Interactive Weather Map New forecast layout! Learn more

10-Day Weather Forecast

Advertisements
Track Severe Weather on mobile